createdAt,value
2022-12-09T00:02:20.532Z,78.91
2022-12-09T00:05:50.960Z,79.24
2022-12-09T00:09:18.427Z,78.93
2022-12-09T00:12:45.488Z,78.97
2022-12-09T00:16:17.016Z,78.78
2022-12-09T00:19:45.543Z,78.64
2022-12-09T00:23:12.798Z,78.35
2022-12-09T00:26:39.971Z,78.27
2022-12-09T00:30:11.756Z,78.24
2022-12-09T00:33:39.077Z,78.08
2022-12-09T00:37:06.613Z,78.34
2022-12-09T00:40:33.856Z,78.29
2022-12-09T00:44:01.305Z,78.30
2022-12-09T00:47:29.686Z,78.25
2022-12-09T00:50:57.770Z,78.18
2022-12-09T00:54:28.252Z,78.35
2022-12-09T00:57:55.583Z,78.45
2022-12-09T01:01:28.347Z,78.74
2022-12-09T01:04:58.060Z,78.69
2022-12-09T01:08:25.447Z,78.74
2022-12-09T01:11:52.698Z,78.62
2022-12-09T01:15:19.386Z,78.51
2022-12-09T01:18:47.428Z,78.74
2022-12-09T01:22:14.936Z,78.67
2022-12-09T01:25:45.962Z,78.57
2022-12-09T01:29:13.239Z,78.65
2022-12-09T01:32:41.773Z,78.55
2022-12-09T01:36:11.828Z,78.38
2022-12-09T01:39:38.839Z,78.10
2022-12-09T01:43:13.351Z,78.07
2022-12-09T01:46:41.304Z,78.13
2022-12-09T01:50:11.864Z,78.48
2022-12-09T01:53:43.362Z,78.16
2022-12-09T01:57:12.611Z,78.26
2022-12-09T02:00:39.440Z,78.36
2022-12-09T02:04:06.864Z,78.24
2022-12-09T02:07:35.746Z,77.92
2022-12-09T02:11:24.284Z,78.14
2022-12-09T02:14:59.615Z,78.25
2022-12-09T02:18:31.004Z,78.29
2022-12-09T02:22:01.756Z,78.18
2022-12-09T02:25:38.180Z,78.60
2022-12-09T02:29:47.224Z,78.61
2022-12-09T02:33:27.725Z,78.88
2022-12-09T02:37:04.003Z,78.71
2022-12-09T02:40:35.492Z,78.57
2022-12-09T02:44:08.166Z,78.17
2022-12-09T02:47:38.177Z,77.97
2022-12-09T02:51:09.027Z,78.15
2022-12-09T02:54:39.100Z,78.14
2022-12-09T02:58:07.365Z,78.04
2022-12-09T03:01:43.044Z,78.15
2022-12-09T03:05:22.663Z,77.97
2022-12-09T03:08:58.383Z,78.37
2022-12-09T03:12:32.084Z,78.17
2022-12-09T03:16:10.205Z,78.22
2022-12-09T03:19:42.429Z,78.28
2022-12-09T03:23:11.055Z,78.30
2022-12-09T03:26:41.186Z,78.39
2022-12-09T03:30:12.832Z,78.75
2022-12-09T03:33:42.685Z,78.91
2022-12-09T03:37:12.706Z,78.82
2022-12-09T03:40:40.717Z,78.74
2022-12-09T03:44:14.094Z,78.60
2022-12-09T03:47:41.880Z,78.28
2022-12-09T03:51:13.799Z,78.43
2022-12-09T03:54:45.507Z,78.20
2022-12-09T03:58:16.357Z,78.35
2022-12-09T04:01:45.988Z,78.15
2022-12-09T04:05:14.587Z,78.01
2022-12-09T04:08:41.210Z,78.26
2022-12-09T04:12:08.926Z,78.06
2022-12-09T04:15:36.045Z,78.06
2022-12-09T04:19:02.724Z,78.43
2022-12-09T04:22:30.075Z,78.54
2022-12-09T04:25:56.821Z,78.22
2022-12-09T04:29:23.131Z,78.41
2022-12-09T04:32:54.428Z,78.73
2022-12-09T04:36:23.089Z,78.79
2022-12-09T04:39:50.439Z,78.64
2022-12-09T04:43:17.189Z,78.51
2022-12-09T04:46:44.263Z,78.35
2022-12-09T04:50:13.817Z,78.45
2022-12-09T04:53:42.622Z,78.39
2022-12-09T04:57:12.434Z,78.25
2022-12-09T05:00:40.492Z,78.03
2022-12-09T05:04:07.216Z,77.94
2022-12-09T05:07:34.430Z,77.73
2022-12-09T05:11:01.691Z,77.95
2022-12-09T05:14:28.614Z,77.84
2022-12-09T05:17:55.401Z,78.16
2022-12-09T05:21:23.277Z,78.20
2022-12-09T05:24:50.419Z,78.04
2022-12-09T05:28:17.931Z,77.89
2022-12-09T05:31:44.811Z,77.85
2022-12-09T05:35:12.639Z,78.40
2022-12-09T05:38:39.822Z,78.05
2022-12-09T05:42:07.773Z,78.19
2022-12-09T05:45:35.708Z,77.93
2022-12-09T05:49:03.904Z,78.04
2022-12-09T05:52:33.471Z,78.37
2022-12-09T05:56:02.379Z,78.07
2022-12-09T05:59:30.009Z,78.31
2022-12-09T06:02:57.752Z,78.23
2022-12-09T06:06:28.422Z,78.09
2022-12-09T06:09:56.466Z,78.24
2022-12-09T06:13:24.626Z,77.80
2022-12-09T06:16:51.844Z,77.81
2022-12-09T06:20:19.563Z,77.80
2022-12-09T06:23:46.943Z,77.62
2022-12-09T06:27:17.807Z,77.77
2022-12-09T06:30:49.039Z,77.68
2022-12-09T06:34:16.450Z,77.47
2022-12-09T06:37:43.546Z,77.66
2022-12-09T06:41:12.377Z,77.65
2022-12-09T06:44:40.414Z,77.79
2022-12-09T06:48:09.219Z,77.73
2022-12-09T06:51:36.974Z,77.77
2022-12-09T06:55:05.853Z,78.20
2022-12-09T06:58:33.875Z,78.15
2022-12-09T07:02:00.800Z,77.69
2022-12-09T07:05:29.033Z,77.45
2022-12-09T07:08:59.272Z,77.43
2022-12-09T07:12:26.638Z,77.75
2022-12-09T07:15:55.350Z,77.78
2022-12-09T07:19:25.497Z,77.73
2022-12-09T07:22:52.672Z,77.59
2022-12-09T07:26:20.647Z,77.40
2022-12-09T07:29:47.543Z,77.63
2022-12-09T07:33:15.387Z,77.49
2022-12-09T07:36:42.579Z,77.46
2022-12-09T07:40:11.783Z,77.42
2022-12-09T07:43:40.465Z,77.68
2022-12-09T07:47:07.738Z,77.70
2022-12-09T07:50:34.512Z,77.79
2022-12-09T07:54:01.978Z,78.14
2022-12-09T07:57:29.106Z,78.14
2022-12-09T08:00:59.737Z,77.95
2022-12-09T08:04:33.645Z,77.89
2022-12-09T08:08:01.409Z,77.78
2022-12-09T08:11:32.262Z,77.87
2022-12-09T08:14:59.649Z,78.07
2022-12-09T08:18:26.727Z,77.84
2022-12-09T08:21:54.918Z,77.95
2022-12-09T08:25:22.380Z,77.87
2022-12-09T08:28:49.557Z,77.77
2022-12-09T08:32:18.788Z,78.06
2022-12-09T08:35:46.988Z,77.93
2022-12-09T08:39:15.676Z,77.88
2022-12-09T08:42:43.271Z,77.79
2022-12-09T08:46:11.211Z,77.82
2022-12-09T08:49:38.590Z,77.86
2022-12-09T08:53:05.478Z,78.09
2022-12-09T08:56:34.250Z,78.24
2022-12-09T09:00:01.269Z,78.05
2022-12-09T09:03:30.621Z,78.10
2022-12-09T09:06:57.088Z,77.99
2022-12-09T09:10:24.074Z,78.11
2022-12-09T09:13:52.565Z,78.21
2022-12-09T09:17:19.612Z,78.05
2022-12-09T09:20:49.085Z,77.86
2022-12-09T09:24:19.005Z,78.09
2022-12-09T09:27:45.885Z,77.77
2022-12-09T09:31:22.167Z,77.72
2022-12-09T09:34:50.863Z,78.21
2022-12-09T09:38:18.221Z,77.92
2022-12-09T09:41:54.531Z,77.85
2022-12-09T09:45:25.019Z,77.89
2022-12-09T09:48:53.756Z,77.83
2022-12-09T09:52:24.703Z,77.76
2022-12-09T09:55:58.277Z,77.81
2022-12-09T09:59:36.511Z,77.85
2022-12-09T10:03:12.401Z,77.82
2022-12-09T10:06:51.979Z,77.95
2022-12-09T10:10:32.490Z,78.16
2022-12-09T10:14:12.049Z,77.86
2022-12-09T10:17:47.871Z,77.84
2022-12-09T10:21:30.081Z,77.95
2022-12-09T10:24:59.839Z,77.74
2022-12-09T10:28:29.178Z,77.75
2022-12-09T10:31:56.137Z,77.81
2022-12-09T10:35:25.607Z,77.91
2022-12-09T10:38:52.524Z,77.77
2022-12-09T10:42:37.368Z,77.65
2022-12-09T10:46:17.721Z,77.67
2022-12-09T10:49:49.484Z,77.21
2022-12-09T10:53:18.695Z,77.42
2022-12-09T10:57:04.392Z,77.60
2022-12-09T11:00:35.078Z,77.27
2022-12-09T11:04:13.574Z,77.48
2022-12-09T11:11:21.693Z,77.99
2022-12-09T11:14:55.639Z,78.05
2022-12-09T11:18:25.658Z,78.05
2022-12-09T11:21:52.419Z,77.68
2022-12-09T11:25:25.117Z,77.50
2022-12-09T11:29:04.594Z,77.41
2022-12-09T11:32:31.615Z,77.59
2022-12-09T11:36:03.691Z,77.38
2022-12-09T11:39:32.490Z,77.69
2022-12-09T11:42:59.916Z,77.29
2022-12-09T11:46:29.254Z,77.60
2022-12-09T11:50:05.448Z,77.46
2022-12-09T11:53:34.813Z,77.22
2022-12-09T11:57:06.904Z,77.12
2022-12-09T12:00:47.982Z,77.41
2022-12-09T12:04:16.085Z,77.08
2022-12-09T12:07:48.062Z,77.36
2022-12-09T12:11:18.948Z,77.30
2022-12-09T12:14:47.543Z,77.05
2022-12-09T12:18:19.846Z,77.23
2022-12-09T12:21:57.530Z,77.18
2022-12-09T12:25:46.592Z,77.38
2022-12-09T12:29:28.914Z,77.24
2022-12-09T12:33:59.751Z,77.60
2022-12-09T12:37:17.357Z,77.08
2022-12-09T12:40:56.422Z,77.33
2022-12-09T12:44:54.657Z,77.43
2022-12-09T12:48:31.732Z,77.21
2022-12-09T12:52:54.768Z,77.17
2022-12-09T12:56:08.758Z,77.09
2022-12-09T12:59:42.933Z,77.11
2022-12-09T13:03:21.162Z,76.84
2022-12-09T13:06:52.746Z,76.71
2022-12-09T13:10:27.898Z,76.93
2022-12-09T13:13:57.364Z,76.65
2022-12-09T13:17:28.461Z,76.75
2022-12-09T13:21:00.012Z,76.58
2022-12-09T13:24:42.437Z,76.68
2022-12-09T13:28:15.709Z,76.66
2022-12-09T13:31:51.251Z,77.00
2022-12-09T13:35:25.904Z,76.82
2022-12-09T13:38:56.559Z,76.86
2022-12-09T13:42:56.670Z,76.93
2022-12-09T13:46:27.296Z,76.91
2022-12-09T13:49:59.953Z,76.98
2022-12-09T13:53:32.766Z,76.88
2022-12-09T13:57:17.863Z,76.69
2022-12-09T14:01:04.315Z,76.74
2022-12-09T14:04:38.287Z,76.47
2022-12-09T14:08:17.230Z,76.44
2022-12-09T14:11:48.554Z,76.49
2022-12-09T14:15:44.545Z,76.38
2022-12-09T14:19:47.878Z,76.23
2022-12-09T14:23:23.886Z,76.43
2022-12-09T14:27:12.680Z,76.68
2022-12-09T14:31:11.040Z,76.67
2022-12-09T14:34:45.114Z,76.51
2022-12-09T14:38:24.143Z,76.86
2022-12-09T14:41:56.914Z,76.93
2022-12-09T14:45:32.493Z,76.95
2022-12-09T14:49:02.825Z,76.86
2022-12-09T14:52:34.422Z,77.01
2022-12-09T14:56:01.745Z,77.02
2022-12-09T14:59:34.046Z,76.79
2022-12-09T15:06:50.491Z,76.58
2022-12-09T15:10:25.393Z,76.49
2022-12-09T15:14:17.513Z,76.43
2022-12-09T15:17:47.710Z,76.28
2022-12-09T15:21:27.916Z,76.45
2022-12-09T15:24:56.103Z,76.42
2022-12-09T15:28:26.606Z,76.53
2022-12-09T15:31:53.861Z,76.15
2022-12-09T15:35:23.823Z,76.41
2022-12-09T15:38:56.314Z,76.38
2022-12-09T15:42:28.178Z,76.13
2022-12-09T15:45:57.809Z,76.55
2022-12-09T15:49:28.167Z,76.68
2022-12-09T15:52:57.501Z,76.91
2022-12-09T15:56:30.628Z,76.79
2022-12-09T16:00:00.330Z,76.66
2022-12-09T16:03:30.436Z,76.68
2022-12-09T16:06:57.237Z,76.95
2022-12-09T16:10:27.211Z,76.79
2022-12-09T16:14:10.488Z,76.68
2022-12-09T16:17:52.668Z,76.59
2022-12-09T16:21:30.454Z,76.35
2022-12-09T16:25:17.380Z,76.44
2022-12-09T16:28:46.530Z,76.36
2022-12-09T16:32:30.722Z,76.12
2022-12-09T16:36:10.435Z,76.12
2022-12-09T16:39:38.320Z,76.15
2022-12-09T16:43:22.304Z,76.19
2022-12-09T16:46:48.651Z,76.26
2022-12-09T16:50:16.264Z,76.12
2022-12-09T16:53:47.318Z,76.28
2022-12-09T16:57:17.779Z,76.38
2022-12-09T17:00:44.309Z,76.46
2022-12-09T17:04:16.384Z,76.52
2022-12-09T17:07:43.208Z,76.45
2022-12-09T17:11:10.269Z,76.57
2022-12-09T17:14:36.899Z,76.44
2022-12-09T17:18:05.185Z,76.51
2022-12-09T17:21:32.238Z,76.40
2022-12-09T17:25:01.806Z,76.25
2022-12-09T17:28:33.273Z,76.43
2022-12-09T17:32:00.260Z,76.38
2022-12-09T17:35:27.382Z,76.30
2022-12-09T17:38:55.522Z,76.10
2022-12-09T17:42:22.326Z,76.26
2022-12-09T17:45:48.881Z,76.23
2022-12-09T17:49:15.790Z,76.09
2022-12-09T17:52:43.271Z,76.01
2022-12-09T17:56:14.340Z,76.24
2022-12-09T17:59:42.529Z,76.16
2022-12-09T18:03:17.905Z,76.29
2022-12-09T18:06:49.425Z,76.56
2022-12-09T18:10:17.007Z,76.63
2022-12-09T18:13:48.126Z,76.48
2022-12-09T18:17:17.678Z,76.78
2022-12-09T18:20:51.577Z,76.77
2022-12-09T18:24:36.762Z,76.57
2022-12-09T18:28:33.220Z,76.51
2022-12-09T18:32:03.392Z,76.44
2022-12-09T18:35:35.833Z,76.39
2022-12-09T18:39:03.519Z,76.30
2022-12-09T18:42:37.385Z,76.36
2022-12-09T18:46:19.283Z,76.20
2022-12-09T18:49:52.893Z,76.13
2022-12-09T18:53:20.311Z,76.19
2022-12-09T18:56:48.531Z,76.19
2022-12-09T19:00:22.259Z,76.07
2022-12-09T19:03:52.461Z,76.16
2022-12-09T19:07:31.972Z,76.09
2022-12-09T19:11:06.743Z,76.21
2022-12-09T19:14:40.302Z,76.43
2022-12-09T19:18:08.225Z,76.39
2022-12-09T19:21:35.622Z,76.56
2022-12-09T19:25:04.558Z,76.53
2022-12-09T19:28:32.795Z,76.45
2022-12-09T19:32:01.241Z,76.57
2022-12-09T19:35:30.950Z,76.64
2022-12-09T19:39:00.767Z,76.48
2022-12-09T19:42:30.668Z,76.43
2022-12-09T19:46:12.219Z,76.43
2022-12-09T19:49:47.690Z,76.27
2022-12-09T19:53:15.231Z,76.23
2022-12-09T19:56:54.944Z,76.36
2022-12-09T20:00:50.531Z,76.37
2022-12-09T20:04:47.561Z,76.42
2022-12-09T20:08:10.436Z,76.45
2022-12-09T20:11:40.744Z,76.44
2022-12-09T20:15:09.288Z,76.51
2022-12-09T20:18:36.468Z,76.49
2022-12-09T20:22:03.212Z,76.52
2022-12-09T20:25:36.657Z,76.52
2022-12-09T20:29:06.490Z,76.45
2022-12-09T20:32:33.864Z,76.59
2022-12-09T20:36:08.339Z,76.73
2022-12-09T20:39:35.527Z,76.77
2022-12-09T20:43:02.229Z,76.89
2022-12-09T20:46:32.675Z,76.96
2022-12-09T20:49:59.207Z,76.82
2022-12-09T20:53:25.789Z,76.89
2022-12-09T20:56:54.931Z,76.94
2022-12-09T21:00:22.417Z,76.75
2022-12-09T21:03:49.798Z,76.51
2022-12-09T21:07:17.041Z,76.55
2022-12-09T21:10:46.532Z,76.72
2022-12-09T21:14:18.339Z,76.59
2022-12-09T21:17:46.902Z,76.61
2022-12-09T21:21:14.384Z,76.51
2022-12-09T21:24:41.220Z,76.52
2022-12-09T21:28:11.524Z,76.46
2022-12-09T21:31:41.055Z,76.37
2022-12-09T21:35:09.269Z,76.43
2022-12-09T21:38:36.481Z,76.41
2022-12-09T21:42:03.462Z,76.50
2022-12-09T21:45:30.645Z,76.62
2022-12-09T21:49:03.249Z,76.48
2022-12-09T21:52:30.988Z,76.66
2022-12-09T21:56:02.032Z,76.55
2022-12-09T21:59:29.292Z,76.47
2022-12-09T22:02:56.447Z,76.49
2022-12-09T22:06:24.393Z,76.46
2022-12-09T22:09:51.896Z,76.37
2022-12-09T22:13:18.881Z,76.31
2022-12-09T22:16:47.552Z,76.50
2022-12-09T22:20:54.019Z,76.35
2022-12-09T22:24:05.695Z,76.39
2022-12-09T22:27:35.872Z,76.21
2022-12-09T22:31:03.437Z,76.24
2022-12-09T22:34:30.147Z,76.27
2022-12-09T22:37:59.215Z,76.24
2022-12-09T22:41:30.040Z,76.27
2022-12-09T22:44:56.668Z,76.37
2022-12-09T22:48:23.087Z,76.40
2022-12-09T22:51:50.107Z,76.62
2022-12-09T22:55:16.951Z,76.60
2022-12-09T22:58:45.604Z,76.78
2022-12-09T23:02:18.788Z,76.81
2022-12-09T23:05:44.260Z,76.87
2022-12-09T23:09:14.903Z,76.86
2022-12-09T23:12:44.588Z,76.90
2022-12-09T23:16:16.191Z,76.91
2022-12-09T23:19:42.989Z,76.84
2022-12-09T23:23:09.932Z,76.87
2022-12-09T23:26:45.137Z,76.62
2022-12-09T23:30:14.292Z,76.27
2022-12-09T23:33:42.877Z,76.10
2022-12-09T23:37:09.863Z,76.13
2022-12-09T23:40:36.803Z,76.09
2022-12-09T23:44:03.529Z,76.03
2022-12-09T23:47:30.794Z,76.12
2022-12-09T23:50:57.430Z,76.09
2022-12-09T23:54:30.523Z,76.11
2022-12-09T23:57:57.778Z,76.05
